Time;durP1;ratioP1;P1;durP2;ratioP2;P2;SDS_P1;SDS_P2;PMS_P1;PMS_P2;Temp;Humidity;BMP_temperature;BMP_pressure;BME280_temperature;BME280_humidity;BME280_pressure;Samples;Min_cycle;Max_cycle;Signal;HPM_P1;HPM_P2
2024/04/21 00:01:39;;;;;;;5.28;4.78;;;5.90;99.90;;;;;;5572458;25;20331;-62
2024/04/21 00:04:07;;;;;;;7.70;5.13;;;5.90;99.90;;;;;;5566861;25;20704;-62
2024/04/21 00:06:33;;;;;;;5.93;5.07;;;5.90;99.90;;;;;;5577242;25;20696;-62
2024/04/21 00:09:01;;;;;;;5.10;4.67;;;5.90;99.90;;;;;;5581277;25;20218;-62
2024/04/21 00:11:27;;;;;;;5.00;4.50;;;5.90;99.90;;;;;;5566062;25;20262;-63
2024/04/21 00:13:55;;;;;;;5.87;5.27;;;5.90;99.90;;;;;;5566130;25;20306;-61
2024/04/21 00:16:21;;;;;;;4.95;4.05;;;5.90;99.90;;;;;;5565273;25;20706;-62
2024/04/21 00:18:52;;;;;;;4.20;3.80;;;6.00;99.90;;;;;;5565957;25;20616;-62
2024/04/21 00:21:18;;;;;;;3.45;2.92;;;5.90;99.90;;;;;;5564334;25;20459;-61
2024/04/21 00:23:46;;;;;;;4.30;3.90;;;5.90;99.90;;;;;;5564324;25;20231;-62
2024/04/21 00:26:12;;;;;;;2.92;2.40;;;5.80;99.90;;;;;;5564843;25;20455;-62
2024/04/21 00:28:41;;;;;;;2.53;2.30;;;5.70;99.90;;;;;;5566498;25;20314;-61
2024/04/21 00:31:06;;;;;;;3.25;2.80;;;5.60;99.90;;;;;;5568675;25;20651;-61
2024/04/21 00:33:35;;;;;;;2.97;2.67;;;5.50;99.90;;;;;;5568988;25;20230;-62
2024/04/21 00:36:04;;;;;;;3.17;2.88;;;5.40;99.90;;;;;;5568634;25;20266;-62
2024/04/21 00:38:32;;;;;;;4.30;3.47;;;5.40;99.90;;;;;;5568051;25;20262;-62
2024/04/21 00:40:58;;;;;;;5.07;3.35;;;5.30;99.90;;;;;;5568458;25;20341;-62
2024/04/21 00:43:26;;;;;;;3.30;3.00;;;5.20;99.90;;;;;;5574042;25;20260;-62
2024/04/21 00:45:52;;;;;;;3.08;2.70;;;5.10;99.90;;;;;;5572704;25;20221;-61
2024/04/21 00:48:21;;;;;;;5.47;3.37;;;5.10;99.90;;;;;;5573808;25;20211;-62
2024/04/21 00:50:49;;;;;;;3.70;3.20;;;5.10;99.90;;;;;;5573584;25;20230;-62
2024/04/21 00:53:22;;;;;;;5.30;3.67;;;5.00;99.90;;;;;;5571082;25;20581;-62
2024/04/21 00:55:50;;;;;;;4.53;4.13;;;5.00;99.90;;;;;;5568623;25;20298;-59
2024/04/21 00:58:20;;;;;;;4.03;3.28;;;5.00;99.90;;;;;;5567067;25;20280;-62
2024/04/21 01:00:46;;;;;;;4.47;4.07;;;5.00;99.90;;;;;;5567321;25;20301;-60
2024/04/21 01:03:15;;;;;;;4.28;3.88;;;4.90;99.90;;;;;;5567810;25;20579;-61
2024/04/21 01:05:40;;;;;;;4.93;4.05;;;4.90;99.90;;;;;;5567535;25;20219;-61
2024/04/21 01:08:10;;;;;;;5.10;4.50;;;5.00;99.90;;;;;;5569052;25;20656;-62
2024/04/21 01:10:38;;;;;;;4.57;3.88;;;4.90;99.90;;;;;;5567971;25;21043;-61
2024/04/21 01:13:13;;;;;;;5.35;4.85;;;4.90;99.90;;;;;;5567557;25;20797;-61
2024/04/21 01:15:39;;;;;;;4.50;3.97;;;4.90;99.90;;;;;;5568439;25;20280;-61
2024/04/21 01:18:08;;;;;;;4.28;3.95;;;4.90;99.90;;;;;;5568433;25;20709;-62
2024/04/21 01:20:35;;;;;;;5.18;4.68;;;4.90;99.90;;;;;;5568838;25;20222;-61
2024/04/21 01:23:06;;;;;;;5.05;4.55;;;4.80;99.90;;;;;;5570396;25;20250;-63
2024/04/21 01:25:32;;;;;;;4.50;4.10;;;4.80;99.90;;;;;;5573278;25;20216;-62
2024/04/21 01:28:01;;;;;;;4.93;4.43;;;4.70;99.90;;;;;;5571945;25;20226;-61
2024/04/21 01:30:27;;;;;;;5.10;4.70;;;4.70;99.90;;;;;;5567869;25;20308;-63
2024/04/21 01:32:56;;;;;;;4.28;3.78;;;4.70;99.90;;;;;;5568398;25;20732;-62
2024/04/21 01:35:22;;;;;;;4.63;4.03;;;4.60;99.90;;;;;;5570473;25;20214;-62
2024/04/21 01:37:50;;;;;;;5.03;4.53;;;4.50;99.90;;;;;;5567084;25;20252;-62
2024/04/21 01:40:19;;;;;;;3.83;3.42;;;4.50;99.90;;;;;;5566080;25;20446;-61
2024/04/21 01:42:47;;;;;;;4.22;3.83;;;4.40;99.90;;;;;;5567205;25;20226;-61
2024/04/21 01:45:13;;;;;;;4.57;3.78;;;4.30;99.90;;;;;;5566920;25;20213;-62
2024/04/21 01:47:42;;;;;;;3.60;3.30;;;4.30;99.90;;;;;;5566980;25;20309;-61
2024/04/21 01:50:10;;;;;;;3.92;3.53;;;4.20;99.90;;;;;;5567330;25;20555;-62
2024/04/21 01:52:38;;;;;;;4.22;3.88;;;4.20;99.90;;;;;;5567608;25;20225;-62
2024/04/21 01:55:04;;;;;;;4.45;3.95;;;4.10;99.90;;;;;;5567489;25;20813;-61
2024/04/21 01:57:36;;;;;;;9.57;4.00;;;4.00;99.90;;;;;;5567493;25;20214;-62
2024/04/21 02:00:04;;;;;;;5.03;4.50;;;4.00;99.90;;;;;;5567396;25;21116;-61
2024/04/21 02:02:33;;;;;;;3.95;3.63;;;3.90;99.90;;;;;;5567673;25;20253;-62
2024/04/21 02:04:59;;;;;;;6.35;3.58;;;4.00;99.90;;;;;;5566951;25;20218;-61
2024/04/21 02:07:27;;;;;;;4.70;4.07;;;3.90;99.90;;;;;;5566962;25;20317;-61
2024/04/21 02:09:53;;;;;;;4.70;4.05;;;4.00;99.90;;;;;;5566410;25;20258;-61
2024/04/21 02:12:21;;;;;;;4.80;4.30;;;3.90;99.90;;;;;;5566521;25;20337;-61
2024/04/21 02:14:50;;;;;;;4.70;4.30;;;3.90;99.90;;;;;;5566425;25;20509;-61
2024/04/21 02:17:18;;;;;;;5.07;4.45;;;3.90;99.90;;;;;;5566857;25;20240;-63
2024/04/21 02:19:44;;;;;;;5.68;4.75;;;3.80;99.90;;;;;;5576835;25;20222;-62
2024/04/21 02:22:12;;;;;;;4.60;4.20;;;3.80;99.90;;;;;;5575967;25;20294;-62
2024/04/21 02:24:40;;;;;;;5.85;5.25;;;3.80;99.90;;;;;;5571358;25;20262;-63
2024/04/21 02:27:09;;;;;;;5.40;4.20;;;3.80;99.90;;;;;;5578138;25;20222;-61
2024/04/21 02:29:35;;;;;;;5.70;5.20;;;3.70;99.90;;;;;;5573713;25;20681;-62
2024/04/21 02:32:06;;;;;;;5.70;5.20;;;3.70;99.90;;;;;;5568328;25;20267;-62
2024/04/21 02:34:32;;;;;;;5.65;4.93;;;3.60;99.90;;;;;;5567005;25;20211;-61
2024/04/21 02:37:00;;;;;;;9.10;5.47;;;3.60;99.90;;;;;;5566883;25;20317;-62
2024/04/21 02:39:26;;;;;;;6.30;5.13;;;3.50;99.90;;;;;;5566715;25;20209;-60
2024/04/21 02:41:55;;;;;;;5.20;4.70;;;3.50;99.90;;;;;;5566518;25;20264;-62
2024/04/21 02:44:21;;;;;;;5.60;4.70;;;3.50;99.90;;;;;;5566608;25;20552;-61
2024/04/21 02:46:49;;;;;;;6.30;5.17;;;3.50;99.90;;;;;;5566763;25;20221;-61
2024/04/21 02:49:17;;;;;;;5.57;5.07;;;3.50;99.90;;;;;;5566420;25;20511;-61
2024/04/21 02:51:46;;;;;;;6.00;4.70;;;3.50;99.90;;;;;;5565627;25;20265;-62
2024/04/21 02:54:12;;;;;;;5.68;3.70;;;3.50;99.90;;;;;;5571569;25;20264;-62
2024/04/21 02:56:40;;;;;;;6.10;3.87;;;3.50;99.90;;;;;;5569803;25;20312;-60
2024/04/21 02:59:06;;;;;;;5.88;4.63;;;3.50;99.90;;;;;;5570926;25;20841;-61
2024/04/21 03:01:34;;;;;;;5.50;5.00;;;3.40;99.90;;;;;;5566327;25;20217;-61
2024/04/21 03:04:00;;;;;;;6.85;4.50;;;3.40;99.90;;;;;;5566183;25;20558;-61
2024/04/21 03:06:31;;;;;;;5.73;5.13;;;3.30;99.90;;;;;;5567493;25;20229;-62
2024/04/21 03:08:57;;;;;;;6.00;5.45;;;3.30;99.90;;;;;;5573515;25;20261;-61
2024/04/21 03:11:25;;;;;;;7.63;5.80;;;3.30;99.90;;;;;;5571635;25;20208;-61
2024/04/21 03:13:51;;;;;;;6.88;5.00;;;3.20;99.90;;;;;;5573063;25;20473;-62
2024/04/21 03:16:20;;;;;;;6.57;5.37;;;3.10;99.90;;;;;;5570282;25;20213;-61
2024/04/21 03:18:45;;;;;;;6.90;6.03;;;3.10;99.90;;;;;;5567126;25;20849;-61
2024/04/21 03:21:14;;;;;;;7.30;6.60;;;3.10;99.90;;;;;;5565677;25;20269;-62
2024/04/21 03:23:42;;;;;;;7.53;6.60;;;3.00;99.90;;;;;;5565838;25;20268;-62
2024/04/21 03:26:10;;;;;;;7.53;6.30;;;3.00;99.90;;;;;;5565865;25;20245;-61
2024/04/21 03:28:36;;;;;;;7.78;6.78;;;2.90;99.90;;;;;;5566299;25;20229;-62
2024/04/21 03:31:05;;;;;;;9.33;6.80;;;2.90;99.90;;;;;;5565464;25;20214;-62
2024/04/21 03:33:31;;;;;;;8.50;6.72;;;2.90;99.90;;;;;;5565546;25;20613;-62
2024/04/21 03:36:04;;;;;;;8.90;7.20;;;2.80;99.90;;;;;;5565572;25;20312;-63
2024/04/21 03:38:33;;;;;;;7.25;6.25;;;2.80;99.90;;;;;;5565470;25;20202;-62
2024/04/21 03:41:04;;;;;;;11.02;7.72;;;2.80;99.90;;;;;;5565370;25;20214;-62
2024/04/21 03:43:33;;;;;;;8.93;7.18;;;2.70;99.90;;;;;;5565164;25;20690;-61
2024/04/21 03:45:59;;;;;;;10.68;8.57;;;2.70;99.90;;;;;;5565244;25;20710;-61
2024/04/21 03:48:28;;;;;;;8.90;8.00;;;2.60;99.90;;;;;;5565317;25;20251;-61
2024/04/21 03:50:53;;;;;;;10.95;8.50;;;2.60;99.90;;;;;;5565107;25;20554;-61
2024/04/21 03:53:24;;;;;;;7.33;6.63;;;2.60;99.90;;;;;;5565047;25;20236;-62
2024/04/21 03:55:50;;;;;;;9.50;7.68;;;2.50;99.90;;;;;;5577890;25;20270;-61
2024/04/21 03:58:21;;;;;;;9.00;7.22;;;2.50;99.90;;;;;;5572502;25;20213;-62
2024/04/21 04:00:47;;;;;;;11.88;7.80;;;2.40;99.90;;;;;;5565147;25;20669;-62
2024/04/21 04:03:16;;;;;;;9.77;7.83;;;2.40;99.90;;;;;;5564235;25;20235;-61
2024/04/21 04:05:42;;;;;;;8.25;7.10;;;2.40;99.90;;;;;;5565025;25;20575;-61
2024/04/21 04:08:11;;;;;;;9.02;6.10;;;2.40;99.90;;;;;;5565010;25;20641;-62
2024/04/21 04:13:36;;;;;;;7.45;6.10;;;2.30;99.90;;;;;;5551787;25;1270911;-62
2024/04/21 04:16:02;;;;;;;7.15;5.85;;;2.30;99.90;;;;;;5584128;25;20715;-60
2024/04/21 04:18:30;;;;;;;9.50;6.23;;;2.30;99.90;;;;;;5584063;25;20248;-63
2024/04/21 04:20:56;;;;;;;7.43;6.40;;;2.30;99.90;;;;;;5584179;25;20442;-61
2024/04/21 04:23:24;;;;;;;8.27;6.13;;;2.30;99.90;;;;;;5584052;25;20573;-62
2024/04/21 04:25:51;;;;;;;4.97;4.50;;;2.30;99.90;;;;;;5584484;25;21037;-62
2024/04/21 04:28:20;;;;;;;6.70;5.55;;;2.30;99.90;;;;;;5584140;25;20261;-61
2024/04/21 04:30:49;;;;;;;6.78;6.07;;;2.50;99.90;;;;;;5584061;25;20662;-62
2024/04/21 04:33:17;;;;;;;7.03;5.72;;;2.60;99.90;;;;;;5583885;25;20258;-61
2024/04/21 04:35:44;;;;;;;6.53;4.95;;;2.80;99.90;;;;;;5583884;25;20312;-60
2024/04/21 04:38:12;;;;;;;5.25;4.40;;;3.00;99.90;;;;;;5584333;25;20211;-61
2024/04/21 04:40:38;;;;;;;5.18;4.68;;;3.20;99.90;;;;;;5589021;25;20210;-62
2024/04/21 04:43:06;;;;;;;4.40;4.00;;;3.40;99.90;;;;;;5567557;25;20282;-62
2024/04/21 04:45:32;;;;;;;4.47;3.83;;;3.50;99.90;;;;;;5592818;25;20447;-62
2024/04/21 04:48:03;;;;;;;5.03;4.30;;;3.50;99.90;;;;;;5587103;25;20321;-62
2024/04/21 04:50:29;;;;;;;3.85;3.55;;;3.60;99.90;;;;;;5585058;25;21039;-61
2024/04/21 04:52:58;;;;;;;4.30;3.90;;;3.70;99.90;;;;;;5584361;25;20223;-61
2024/04/21 04:55:24;;;;;;;4.13;3.63;;;3.80;99.90;;;;;;5584870;25;20697;-61
2024/04/21 04:57:53;;;;;;;4.90;3.90;;;3.90;99.90;;;;;;5584808;25;20282;-62
2024/04/21 05:00:19;;;;;;;4.65;4.13;;;4.10;99.90;;;;;;5583766;25;20226;-61
2024/04/21 05:02:48;;;;;;;4.45;4.05;;;4.20;99.90;;;;;;5583847;25;20655;-61
2024/04/21 05:05:16;;;;;;;7.57;3.88;;;4.30;99.90;;;;;;5583619;25;20226;-61
2024/04/21 05:07:45;;;;;;;2.75;2.55;;;4.30;99.90;;;;;;5583498;25;20310;-61
2024/04/21 05:10:12;;;;;;;3.15;2.85;;;4.40;99.90;;;;;;5583142;25;20214;-61
2024/04/21 05:12:41;;;;;;;4.45;3.67;;;4.40;99.90;;;;;;5582832;25;20270;-62
2024/04/21 05:15:07;;;;;;;3.35;2.92;;;4.30;99.90;;;;;;5583470;25;20278;-62
2024/04/21 05:17:36;;;;;;;4.03;3.63;;;4.30;99.90;;;;;;5583784;25;20214;-62
2024/04/21 05:20:02;;;;;;;3.38;2.88;;;4.30;99.90;;;;;;5583266;25;20447;-62
2024/04/21 05:22:33;;;;;;;6.63;3.88;;;4.30;99.90;;;;;;5582621;25;20230;-62
2024/04/21 05:24:58;;;;;;;4.38;3.20;;;4.30;99.90;;;;;;5566200;25;20320;-62
2024/04/21 05:27:27;;;;;;;3.27;2.97;;;4.30;99.90;;;;;;5568356;25;20708;-63
2024/04/21 05:29:54;;;;;;;3.20;2.78;;;4.20;99.90;;;;;;5572160;25;20215;-62
2024/04/21 05:32:22;;;;;;;4.25;3.60;;;4.00;99.90;;;;;;5573003;25;20234;-61
2024/04/21 05:34:48;;;;;;;5.35;3.47;;;3.90;99.90;;;;;;5570071;25;20218;-62
2024/04/21 05:37:16;;;;;;;4.80;3.60;;;3.70;99.90;;;;;;5568556;25;20301;-61
2024/04/21 05:39:45;;;;;;;4.53;3.60;;;3.60;99.90;;;;;;5568007;25;20455;-62
2024/04/21 05:42:14;;;;;;;3.80;3.50;;;3.50;99.90;;;;;;5566892;25;20316;-64
2024/04/21 05:44:39;;;;;;;4.22;3.72;;;3.50;99.90;;;;;;5566885;25;20594;-61
2024/04/21 05:47:08;;;;;;;4.90;4.40;;;3.50;99.90;;;;;;5567098;25;20310;-61
2024/04/21 05:49:34;;;;;;;5.00;4.35;;;3.60;99.90;;;;;;5567090;25;20223;-58
2024/04/21 05:52:02;;;;;;;4.70;4.30;;;3.60;99.90;;;;;;5566463;25;20219;-62
2024/04/21 05:54:28;;;;;;;5.80;4.90;;;3.60;99.90;;;;;;5567109;25;20314;-61
2024/04/21 05:56:59;;;;;;;4.93;3.90;;;3.70;99.90;;;;;;5566558;25;20573;-61
2024/04/21 05:59:25;;;;;;;5.15;4.40;;;3.70;99.90;;;;;;5566821;25;20274;-62
2024/04/21 06:01:54;;;;;;;5.27;4.13;;;3.80;99.90;;;;;;5566821;25;20306;-62
2024/04/21 06:04:19;;;;;;;4.78;4.30;;;3.90;99.90;;;;;;5566256;25;20448;-62
2024/04/21 06:06:50;;;;;;;4.17;3.77;;;3.90;99.90;;;;;;5566235;25;20218;-61
2024/04/21 06:09:16;;;;;;;5.85;4.55;;;4.00;99.90;;;;;;5566371;25;20493;-61
2024/04/21 06:11:45;;;;;;;7.07;4.40;;;4.00;99.90;;;;;;5566025;25;20215;-62
2024/04/21 06:14:13;;;;;;;5.10;4.60;;;4.10;99.90;;;;;;5566080;25;20553;-61
2024/04/21 06:16:42;;;;;;;6.85;4.60;;;4.10;99.90;;;;;;5566508;25;20219;-60
2024/04/21 06:19:08;;;;;;;5.50;3.95;;;4.20;99.90;;;;;;5566484;25;20256;-62
2024/04/21 06:21:36;;;;;;;6.30;4.07;;;4.30;99.90;;;;;;5567811;25;20647;-61
2024/04/21 06:24:02;;;;;;;4.38;3.63;;;4.40;99.90;;;;;;5571257;25;20279;-60
2024/04/21 06:26:30;;;;;;;5.67;4.50;;;4.40;99.90;;;;;;5578029;25;20215;-61
2024/04/21 06:28:56;;;;;;;4.50;4.10;;;4.50;99.90;;;;;;5576769;25;20443;-61
2024/04/21 06:31:27;;;;;;;3.60;3.20;;;4.50;99.90;;;;;;5567241;25;20639;-62
2024/04/21 06:33:53;;;;;;;5.28;4.22;;;4.60;99.90;;;;;;5565987;25;20809;-60
2024/04/21 06:36:21;;;;;;;4.70;4.20;;;4.70;99.90;;;;;;5565096;25;20219;-60
2024/04/21 06:38:47;;;;;;;3.90;3.53;;;4.80;99.90;;;;;;5567984;25;20451;-60
2024/04/21 06:41:16;;;;;;;4.30;3.77;;;4.90;99.90;;;;;;5567622;25;20214;-61
2024/04/21 06:43:42;;;;;;;3.85;3.30;;;5.00;99.90;;;;;;5567399;25;20499;-62
2024/04/21 06:46:10;;;;;;;4.90;4.10;;;5.10;99.90;;;;;;5567254;25;20271;-61
2024/04/21 06:48:38;;;;;;;4.60;3.92;;;5.20;99.90;;;;;;5567564;25;20286;-62
2024/04/21 06:51:07;;;;;;;4.70;3.85;;;5.30;99.90;;;;;;5567055;25;20462;-62
2024/04/21 06:53:33;;;;;;;6.72;4.10;;;5.40;99.90;;;;;;5568023;25;20273;-61
2024/04/21 06:56:01;;;;;;;4.77;4.37;;;5.50;99.90;;;;;;5569787;25;20219;-62
2024/04/21 06:58:27;;;;;;;3.35;3.05;;;5.60;99.90;;;;;;5569252;25;20372;-62
2024/04/21 07:00:55;;;;;;;5.53;3.90;;;5.70;99.90;;;;;;5566785;25;20226;-64
2024/04/21 07:03:21;;;;;;;5.65;4.30;;;5.80;99.90;;;;;;5572997;25;20460;-63
2024/04/21 07:05:52;;;;;;;4.93;3.90;;;6.00;99.90;;;;;;5567379;25;20309;-62
2024/04/21 07:08:18;;;;;;;4.82;3.70;;;6.00;99.90;;;;;;5567526;25;20544;-63
2024/04/21 07:10:46;;;;;;;5.00;4.50;;;6.10;99.90;;;;;;5567326;25;20206;-62
2024/04/21 07:13:12;;;;;;;5.60;3.97;;;6.20;99.90;;;;;;5567312;25;20270;-63
2024/04/21 07:15:41;;;;;;;4.10;3.70;;;6.30;99.90;;;;;;5567071;25;20314;-61
2024/04/21 07:18:07;;;;;;;3.60;3.30;;;6.40;99.90;;;;;;5566673;25;20980;-61
2024/04/21 07:20:36;;;;;;;5.20;4.23;;;6.50;99.90;;;;;;5566179;25;20314;-62
2024/04/21 07:23:04;;;;;;;4.82;3.95;;;6.60;99.90;;;;;;5566895;25;20219;-62
2024/04/21 07:25:33;;;;;;;5.78;3.97;;;6.70;99.90;;;;;;5568384;25;20214;-63
2024/04/21 07:27:59;;;;;;;4.22;3.70;;;6.80;99.90;;;;;;5569274;25;20324;-63
2024/04/21 07:30:27;;;;;;;4.33;3.93;;;6.80;99.90;;;;;;5569254;25;20218;-62
2024/04/21 07:32:54;;;;;;;6.63;3.58;;;6.90;99.90;;;;;;5570286;25;20246;-61
2024/04/21 07:35:24;;;;;;;4.70;4.25;;;6.90;99.90;;;;;;5569180;25;20259;-63
2024/04/21 07:37:50;;;;;;;4.05;3.75;;;6.90;99.90;;;;;;5568313;25;20218;-62
2024/04/21 07:40:21;;;;;;;5.37;4.27;;;6.90;99.90;;;;;;5568128;25;20289;-62
2024/04/21 07:42:46;;;;;;;5.22;4.72;;;6.80;99.90;;;;;;5566633;25;20241;-62
2024/04/21 07:45:15;;;;;;;5.47;4.57;;;6.80;99.90;;;;;;5566277;25;20657;-63
2024/04/21 07:47:41;;;;;;;4.85;4.45;;;6.90;99.90;;;;;;5565520;25;20318;-63
2024/04/21 07:50:09;;;;;;;4.90;4.40;;;7.10;99.90;;;;;;5566762;25;20226;-62
2024/04/21 07:52:36;;;;;;;5.45;4.72;;;7.40;99.90;;;;;;5572902;25;20504;-62
2024/04/21 07:55:04;;;;;;;7.22;4.18;;;7.70;98.70;;;;;;5574379;25;20245;-63
2024/04/21 07:57:33;;;;;;;4.32;3.83;;;8.00;97.00;;;;;;5571334;25;20279;-66
2024/04/21 08:00:02;;;;;;;7.45;5.60;;;8.20;95.60;;;;;;5568189;25;20215;-63
2024/04/21 08:02:29;;;;;;;5.82;4.40;;;8.30;94.00;;;;;;5568182;25;20232;-61
2024/04/21 08:04:57;;;;;;;4.22;3.45;;;8.30;91.70;;;;;;5568894;25;20215;-63
2024/04/21 08:07:23;;;;;;;5.53;4.43;;;8.10;86.60;;;;;;5567123;25;20337;-63
2024/04/21 08:09:51;;;;;;;4.70;4.20;;;7.80;85.70;;;;;;5566565;25;20219;-61
2024/04/21 08:12:17;;;;;;;5.50;3.72;;;7.60;85.90;;;;;;5565891;25;20620;-62
2024/04/21 08:14:48;;;;;;;4.37;3.97;;;7.60;85.80;;;;;;5565430;25;20215;-62
2024/04/21 08:17:16;;;;;;;5.65;3.67;;;7.80;83.00;;;;;;5564953;25;20974;-63
2024/04/21 08:19:42;;;;;;;4.85;3.85;;;8.10;79.80;;;;;;5565846;25;20335;-62
2024/04/21 08:22:11;;;;;;;4.30;3.50;;;8.30;74.80;;;;;;5566311;25;20709;-63
2024/04/21 08:24:36;;;;;;;4.00;3.60;;;8.30;72.90;;;;;;5566341;25;20459;-62
2024/04/21 08:27:05;;;;;;;3.23;2.90;;;8.30;70.00;;;;;;5565799;25;20288;-63
2024/04/21 08:29:31;;;;;;;3.78;3.38;;;8.20;68.40;;;;;;5566358;25;20283;-62
2024/04/21 08:32:02;;;;;;;3.20;2.90;;;8.20;68.10;;;;;;5565794;25;20219;-62
2024/04/21 08:34:28;;;;;;;4.72;3.60;;;8.30;67.40;;;;;;5566672;25;20534;-62
2024/04/21 08:36:56;;;;;;;4.50;3.30;;;8.60;65.60;;;;;;5567195;25;20227;-62
2024/04/21 08:39:22;;;;;;;3.95;3.10;;;8.80;63.50;;;;;;5569826;25;20225;-62
2024/04/21 08:41:51;;;;;;;4.67;3.07;;;9.00;62.50;;;;;;5569347;25;20212;-63
2024/04/21 08:44:17;;;;;;;4.22;2.90;;;9.10;61.50;;;;;;5566245;25;20557;-63
2024/04/21 08:46:46;;;;;;;3.53;2.93;;;9.00;59.40;;;;;;5566048;25;20231;-62
2024/04/21 08:49:18;;;;;;;4.95;2.83;;;8.80;58.70;;;;;;5566314;25;20220;-62
2024/04/21 08:51:46;;;;;;;3.00;2.63;;;8.70;58.10;;;;;;5566570;25;20313;-63
2024/04/21 08:54:14;;;;;;;3.75;2.70;;;8.60;56.50;;;;;;5565841;25;20206;-62
2024/04/21 08:56:43;;;;;;;2.35;2.13;;;8.40;55.10;;;;;;5564766;25;20208;-61
2024/04/21 08:59:14;;;;;;;3.65;2.72;;;8.30;54.40;;;;;;5567208;25;20780;-62
2024/04/21 09:01:40;;;;;;;5.07;3.00;;;8.40;54.80;;;;;;5570303;25;20220;-62
2024/04/21 09:04:09;;;;;;;2.58;2.35;;;8.60;54.70;;;;;;5569566;25;20793;-62
2024/04/21 09:06:39;;;;;;;4.13;2.88;;;8.60;53.80;;;;;;5569760;25;20250;-62
2024/04/21 09:09:08;;;;;;;4.50;2.50;;;8.50;52.60;;;;;;5569344;25;20207;-62
2024/04/21 09:11:34;;;;;;;2.30;2.10;;;8.30;52.00;;;;;;5569734;25;20324;-63
2024/04/21 09:14:03;;;;;;;2.78;2.10;;;8.20;51.90;;;;;;5569850;25;20253;-62
2024/04/21 09:16:29;;;;;;;3.08;2.42;;;8.10;51.70;;;;;;5570513;25;20223;-60
2024/04/21 09:18:57;;;;;;;3.03;2.37;;;8.10;51.20;;;;;;5570594;25;20207;-63
2024/04/21 09:21:23;;;;;;;2.75;2.55;;;8.00;50.70;;;;;;5569008;25;20291;-63
2024/04/21 09:23:54;;;;;;;3.75;2.70;;;8.00;50.50;;;;;;5571561;25;20226;-62
2024/04/21 09:26:20;;;;;;;2.42;2.22;;;7.90;50.30;;;;;;5578993;25;20219;-62
2024/04/21 09:28:49;;;;;;;4.97;2.43;;;7.80;50.00;;;;;;5576967;25;20321;-62
2024/04/21 09:31:14;;;;;;;2.88;2.67;;;7.80;50.30;;;;;;5569692;25;20291;-62
2024/04/21 09:33:43;;;;;;;2.50;2.30;;;8.10;50.80;;;;;;5571191;25;20215;-63
2024/04/21 09:36:09;;;;;;;3.13;2.60;;;8.40;51.00;;;;;;5572520;25;20271;-62
2024/04/21 09:38:37;;;;;;;2.30;2.10;;;8.60;50.10;;;;;;5571467;25;20220;-62
2024/04/21 09:41:08;;;;;;;3.10;2.20;;;8.80;50.80;;;;;;5570841;25;20555;-62
2024/04/21 09:43:37;;;;;;;2.53;2.33;;;8.80;48.70;;;;;;5573422;25;20228;-63
2024/04/21 09:46:04;;;;;;;2.55;2.35;;;8.80;48.70;;;;;;5569943;25;20271;-62
2024/04/21 09:48:36;;;;;;;3.55;2.50;;;8.80;48.70;;;;;;5570136;25;20220;-63
2024/04/21 09:51:03;;;;;;;2.83;2.40;;;8.70;48.30;;;;;;5570689;25;20351;-62
2024/04/21 09:53:32;;;;;;;3.13;2.50;;;8.60;48.10;;;;;;5569715;25;20336;-63
2024/04/21 09:56:03;;;;;;;4.35;2.63;;;8.40;47.80;;;;;;5569356;25;20297;-62
2024/04/21 09:58:38;;;;;;;3.20;2.42;;;8.30;47.90;;;;;;5571432;25;20212;-62
2024/04/21 10:01:06;;;;;;;3.25;1.90;;;8.10;47.50;;;;;;5569669;25;20242;-61
2024/04/21 10:03:37;;;;;;;2.70;2.40;;;8.10;47.40;;;;;;5571053;25;20324;-62
2024/04/21 10:06:05;;;;;;;2.42;2.10;;;8.10;47.50;;;;;;5569186;25;20311;-62
2024/04/21 10:08:34;;;;;;;3.03;2.63;;;8.20;47.90;;;;;;5570626;25;20266;-62
2024/04/21 10:11:00;;;;;;;3.10;2.40;;;8.30;48.20;;;;;;5568265;25;20374;-62
2024/04/21 10:13:30;;;;;;;3.00;2.53;;;8.40;48.40;;;;;;5570332;25;20243;-63
2024/04/21 10:15:58;;;;;;;2.90;2.13;;;8.50;48.60;;;;;;5568900;25;21077;-62
2024/04/21 10:18:27;;;;;;;2.78;2.58;;;8.50;48.40;;;;;;5568691;25;20204;-61
2024/04/21 10:20:53;;;;;;;2.97;2.38;;;8.60;48.60;;;;;;5568825;25;20325;-62
2024/04/21 10:23:22;;;;;;;3.30;2.00;;;9.00;47.80;;;;;;5570928;25;20219;-63
2024/04/21 10:25:48;;;;;;;2.00;1.70;;;9.10;46.00;;;;;;5575210;25;20316;-63
2024/04/21 10:28:27;;;;;;;2.37;2.17;;;9.00;45.90;;;;;;5572252;25;20459;-63
2024/04/21 10:31:05;;;;;;;4.43;2.60;;;9.00;45.50;;;;;;5572100;25;20444;-62
2024/04/21 10:33:35;;;;;;;2.55;2.35;;;8.80;45.20;;;;;;5571104;25;20596;-62
2024/04/21 10:36:01;;;;;;;2.15;1.95;;;8.60;44.80;;;;;;5569778;25;20259;-62
2024/04/21 10:38:29;;;;;;;2.33;2.10;;;8.40;45.00;;;;;;5569686;25;20669;-63
2024/04/21 10:40:56;;;;;;;2.63;2.00;;;8.40;45.50;;;;;;5568727;25;20623;-61
2024/04/21 10:43:25;;;;;;;3.38;2.38;;;8.40;45.40;;;;;;5567256;25;20467;-61
2024/04/21 10:45:53;;;;;;;3.30;2.50;;;8.60;45.20;;;;;;5566761;25;20559;-62
2024/04/21 10:48:25;;;;;;;3.75;2.95;;;8.90;44.70;;;;;;5570178;25;20492;-63
2024/04/21 10:50:51;;;;;;;3.77;2.40;;;9.10;43.50;;;;;;5566691;25;20705;-63
2024/04/21 10:53:20;;;;;;;2.07;1.87;;;9.20;43.10;;;;;;5566786;25;20468;-61
2024/04/21 10:55:46;;;;;;;2.43;2.23;;;9.40;43.30;;;;;;5566338;25;20443;-63
2024/04/21 10:58:14;;;;;;;2.63;2.27;;;9.60;43.40;;;;;;5567460;25;20510;-62
2024/04/21 11:00:40;;;;;;;4.00;2.20;;;9.70;43.30;;;;;;5566770;25;20988;-61
2024/04/21 11:03:09;;;;;;;2.83;1.97;;;9.50;42.50;;;;;;5566970;25;20485;-62
2024/04/21 11:05:45;;;;;;;8.33;7.33;;;9.30;42.40;;;;;;5566671;25;20753;-62
2024/04/21 11:08:14;;;;;;;3.70;2.77;;;9.20;42.20;;;;;;5566341;25;20456;-62
2024/04/21 11:10:41;;;;;;;2.97;2.67;;;9.20;42.40;;;;;;5565720;25;20816;-61
2024/04/21 11:13:09;;;;;;;5.37;4.20;;;9.40;42.60;;;;;;5565277;25;20457;-63
2024/04/21 11:15:39;;;;;;;2.60;2.00;;;9.60;42.40;;;;;;5566127;25;20515;-63
2024/04/21 11:18:08;;;;;;;3.30;2.53;;;9.70;42.10;;;;;;5566745;25;20524;-63
2024/04/21 11:20:34;;;;;;;2.57;2.13;;;9.60;41.90;;;;;;5565697;25;20493;-63
2024/04/21 11:23:06;;;;;;;3.73;2.47;;;9.70;41.40;;;;;;5565465;25;20526;-64
2024/04/21 11:25:32;;;;;;;2.73;2.53;;;9.90;41.30;;;;;;5566175;25;20448;-64
2024/04/21 11:28:00;;;;;;;3.03;2.37;;;9.90;41.20;;;;;;5567255;25;20497;-62
2024/04/21 11:30:27;;;;;;;2.97;2.60;;;9.90;41.50;;;;;;5568113;25;20452;-63
2024/04/21 11:32:55;;;;;;;3.40;2.70;;;9.80;42.00;;;;;;5569181;25;20480;-65
2024/04/21 11:35:22;;;;;;;3.40;3.10;;;9.60;42.20;;;;;;5569887;25;20448;-63
2024/04/21 11:37:51;;;;;;;2.33;2.13;;;9.30;42.40;;;;;;5570342;25;20492;-62
2024/04/21 11:40:19;;;;;;;2.57;2.07;;;9.10;42.80;;;;;;5571933;25;20659;-61
2024/04/21 11:42:47;;;;;;;2.33;2.10;;;9.20;43.20;;;;;;5573034;25;20523;-62
2024/04/21 11:45:24;;;;;;;4.07;3.10;;;9.50;42.90;;;;;;5573818;25;20569;-64
2024/04/21 11:47:56;;;;;;;5.50;5.00;;;9.80;42.70;;;;;;5572141;25;20524;-63
2024/04/21 11:50:22;;;;;;;3.20;2.90;;;10.50;41.70;;;;;;5570024;25;20444;-62
2024/04/21 11:52:51;;;;;;;2.13;1.80;;;11.40;40.60;;;;;;5569892;25;20457;-62
2024/04/21 11:55:19;;;;;;;2.30;2.10;;;12.20;38.80;;;;;;5570884;25;20658;-63
2024/04/21 11:57:48;;;;;;;2.90;2.00;;;11.90;36.60;;;;;;5571337;25;21028;-63
2024/04/21 12:00:14;;;;;;;2.80;2.40;;;11.40;37.00;;;;;;5571342;25;21059;-64
2024/04/21 12:02:43;;;;;;;1.97;1.87;;;11.20;37.80;;;;;;5570629;25;20541;-62
2024/04/21 12:05:09;;;;;;;1.80;1.70;;;11.70;37.70;;;;;;5569848;25;21084;-63
2024/04/21 12:07:37;;;;;;;2.50;2.30;;;12.30;37.00;;;;;;5569705;25;20568;-62
2024/04/21 12:10:03;;;;;;;2.37;2.17;;;12.30;36.30;;;;;;5569776;25;20623;-64
2024/04/21 12:12:34;;;;;;;4.00;2.67;;;11.70;36.40;;;;;;5569819;25;20539;-63
2024/04/21 12:15:00;;;;;;;2.53;2.20;;;11.20;37.00;;;;;;5570004;25;20504;-62
2024/04/21 12:17:29;;;;;;;1.80;1.70;;;11.10;37.20;;;;;;5569235;25;20559;-62
2024/04/21 12:19:54;;;;;;;1.90;1.80;;;11.60;37.00;;;;;;5570267;25;20498;-63
2024/04/21 12:22:24;;;;;;;2.53;2.33;;;12.10;36.50;;;;;;5569258;25;20468;-63
2024/04/21 12:24:50;;;;;;;2.50;2.30;;;12.40;35.90;;;;;;5569224;25;20216;-63
2024/04/21 12:27:19;;;;;;;2.70;2.50;;;12.20;34.30;;;;;;5567401;25;21068;-63
2024/04/21 12:29:47;;;;;;;2.27;2.03;;;11.70;34.90;;;;;;5566486;25;20305;-64
2024/04/21 12:32:16;;;;;;;2.33;1.90;;;11.10;35.80;;;;;;5566008;25;20474;-62
2024/04/21 12:34:41;;;;;;;3.00;1.90;;;10.70;36.70;;;;;;5568433;25;20545;-64
2024/04/21 12:37:10;;;;;;;2.20;2.00;;;10.60;37.40;;;;;;5569741;25;20597;-63
2024/04/21 12:39:36;;;;;;;2.93;2.10;;;10.80;37.80;;;;;;5569327;25;20224;-62
2024/04/21 12:42:04;;;;;;;3.47;2.23;;;11.10;37.50;;;;;;5570532;25;20560;-63
2024/04/21 12:44:30;;;;;;;2.40;2.20;;;11.40;37.10;;;;;;5569983;25;20284;-63
2024/04/21 12:47:01;;;;;;;2.60;2.10;;;11.40;36.90;;;;;;5570317;25;20546;-63
2024/04/21 12:49:27;;;;;;;2.13;1.90;;;11.40;37.00;;;;;;5569734;25;20301;-63
2024/04/21 12:51:56;;;;;;;3.47;2.23;;;11.30;37.10;;;;;;5568973;25;20452;-63
2024/04/21 12:54:22;;;;;;;2.77;2.23;;;11.20;37.10;;;;;;5569065;25;20216;-62
2024/04/21 12:56:51;;;;;;;2.30;2.03;;;11.10;37.30;;;;;;5568990;25;20461;-63
2024/04/21 12:59:16;;;;;;;3.23;2.40;;;11.00;37.60;;;;;;5576339;25;20461;-62
2024/04/21 13:01:45;;;;;;;2.77;2.57;;;11.10;37.80;;;;;;5580743;25;20568;-62